Time;durP1;ratioP1;P1;durP2;ratioP2;P2;SDS_P1;SDS_P2;PMS_P1;PMS_P2;Temp;Humidity;BMP_temperature;BMP_pressure;BME280_temperature;BME280_humidity;BME280_pressure;Samples;Min_cycle;Max_cycle;Signal;HPM_P1;HPM_P2
2021/05/08 00:01:48;;;;;;;3.00;2.60;;;;;;;3.94;67.06;99202.61;1743361;80;21181;-65
2021/05/08 00:04:15;;;;;;;;;;;;;;;3.95;67.14;99199.13;1754133;80;21280;-65
2021/05/08 00:06:44;;;;;;;2.90;2.58;;;;;;;3.92;67.20;99212.12;1733120;80;21156;-65
2021/05/08 00:09:12;;;;;;;3.58;3.22;;;;;;;3.86;67.10;99212.31;1743521;80;21009;-66
2021/05/08 00:11:40;;;;;;;2.62;2.40;;;;;;;3.84;67.25;99213.66;1748994;80;21211;-66
2021/05/08 00:14:08;;;;;;;3.98;3.55;;;;;;;3.84;67.39;99206.33;1741279;81;21653;-66
2021/05/08 00:16:37;;;;;;;4.72;3.10;;;;;;;3.80;67.37;99202.55;1743607;80;21762;-66
2021/05/08 00:19:05;;;;;;;3.35;2.42;;;;;;;3.76;67.36;99203.54;1746998;80;21406;-67
2021/05/08 00:21:32;;;;;;;3.02;2.50;;;;;;;3.72;67.46;99205.78;1741361;81;21163;-65
2021/05/08 00:23:59;;;;;;;2.80;2.17;;;;;;;3.69;67.51;99200.70;1744074;80;21215;-66
2021/05/08 00:26:26;;;;;;;2.37;2.02;;;;;;;3.65;67.65;99204.28;1739755;80;21050;-66
2021/05/08 00:28:54;;;;;;;5.70;2.47;;;;;;;3.63;67.59;99206.05;1742949;81;21191;-65
2021/05/08 00:31:21;;;;;;;3.08;2.70;;;;;;;3.60;67.82;99207.42;1743202;81;21210;-66
2021/05/08 00:33:48;;;;;;;6.03;2.27;;;;;;;3.57;67.79;99210.09;1743846;81;21204;-66
2021/05/08 00:36:15;;;;;;;3.05;2.42;;;;;;;3.54;67.83;99214.05;1726691;81;21663;-66
2021/05/08 00:38:42;;;;;;;3.15;2.47;;;;;;;3.54;67.95;99219.21;1707965;82;21231;-65
2021/05/08 00:41:09;;;;;;;3.52;2.47;;;;;;;3.57;68.12;99231.58;1718705;82;21171;-67
2021/05/08 00:43:36;;;;;;;2.60;2.25;;;;;;;3.62;68.02;99232.77;1708465;82;21649;-66
2021/05/08 00:46:03;;;;;;;3.27;2.72;;;;;;;3.59;68.07;99219.94;1713558;82;22325;-66
2021/05/08 00:48:32;;;;;;;2.47;1.80;;;;;;;3.57;68.11;99226.88;1711395;82;21177;-66
2021/05/08 00:51:00;;;;;;;2.17;1.98;;;;;;;3.57;68.32;99221.71;1713542;82;21239;-66
2021/05/08 00:53:27;;;;;;;2.55;1.82;;;;;;;3.55;68.15;99226.05;1710715;82;21219;-66
2021/05/08 00:55:55;;;;;;;2.35;1.70;;;;;;;3.56;68.25;99236.80;1715021;82;21214;-66
2021/05/08 00:58:24;;;;;;;2.42;2.12;;;;;;;3.59;68.30;99238.02;1709419;82;21632;-66
2021/05/08 01:00:54;;;;;;;;;;;;;;;3.62;68.35;99235.34;1712213;82;21145;-66
2021/05/08 01:03:23;;;;;;;2.87;2.00;;;;;;;3.61;68.55;99243.95;1713765;82;20244;-66
2021/05/08 01:08:21;;;;;;;4.33;2.67;;;;;;;3.68;68.58;99230.02;1834194;77;22800;-65
2021/05/08 01:10:50;;;;;;;3.00;2.10;;;;;;;3.69;68.57;99239.44;1801563;77;21043;-65
2021/05/08 01:13:18;;;;;;;5.15;2.20;;;;;;;3.67;68.59;99238.66;1774110;79;21196;-66
2021/05/08 01:15:45;;;;;;;;;;;;;;;3.65;68.64;99240.42;1809589;77;21021;-65
2021/05/08 01:18:12;;;;;;;1.40;1.30;;;;;;;3.62;68.53;99240.51;1805857;77;20179;-65
2021/05/08 01:20:41;;;;;;;1.55;1.22;;;;;;;3.58;68.68;99241.46;1803698;78;21172;-65
2021/05/08 01:23:08;;;;;;;1.50;1.30;;;;;;;3.50;68.64;99243.39;1796081;78;20966;-65
2021/05/08 01:25:35;;;;;;;3.52;1.40;;;;;;;3.42;68.81;99247.48;1809298;77;21198;-65
2021/05/08 01:28:04;;;;;;;1.87;1.77;;;;;;;3.38;68.86;99245.02;1804631;78;21563;-65
2021/05/08 01:30:37;;;;;;;2.45;1.70;;;;;;;3.39;68.95;99254.02;1808165;78;21060;-66
2021/05/08 01:33:07;;;;;;;1.90;1.52;;;;;;;3.42;68.99;99250.48;1738695;80;21240;-66
2021/05/08 01:36:47;;;;;;;2.12;1.10;;;;;;;3.49;69.05;99250.75;1826044;77;22807;-65
2021/05/08 01:39:16;;;;;;;2.02;1.02;;;;;;;3.41;69.51;99246.22;1800628;78;20977;-65
2021/05/08 01:41:45;;;;;;;1.07;0.98;;;;;;;3.33;70.00;99253.73;1802087;78;22052;-65
2021/05/08 01:44:15;;;;;;;1.72;1.10;;;;;;;3.23;69.74;99254.00;1801027;78;21184;-65
2021/05/08 01:46:43;;;;;;;1.45;1.05;;;;;;;3.20;69.50;99253.63;1794654;78;21050;-65
2021/05/08 01:49:11;;;;;;;1.35;1.25;;;;;;;3.20;69.52;99263.95;1805797;77;21231;-65
2021/05/08 01:51:38;;;;;;;1.60;1.17;;;;;;;3.18;69.57;99255.39;1799678;77;21175;-65
2021/05/08 01:54:06;;;;;;;1.80;1.12;;;;;;;3.21;69.59;99268.21;1807906;78;21200;-66
2021/05/08 01:56:33;;;;;;;1.40;1.27;;;;;;;3.26;69.78;99268.95;1803497;78;21261;-66
2021/05/08 01:59:01;;;;;;;1.20;1.10;;;;;;;3.28;69.55;99267.19;1799264;78;21018;-66
2021/05/08 02:01:28;;;;;;;2.45;1.22;;;;;;;3.31;69.56;99266.27;1799996;77;21135;-65
2021/05/08 02:03:56;;;;;;;;;;;;;;;3.29;69.60;99268.03;1806795;78;21156;-65
2021/05/08 02:06:24;;;;;;;1.35;1.00;;;;;;;3.29;69.72;99266.29;1804737;78;21179;-65
2021/05/08 02:08:51;;;;;;;1.50;1.30;;;;;;;3.29;69.61;99268.87;1799293;77;21625;-65
2021/05/08 02:11:19;;;;;;;1.27;0.90;;;;;;;3.26;69.90;99270.24;1797881;77;21094;-65
2021/05/08 02:13:47;;;;;;;1.92;0.85;;;;;;;3.19;69.66;99275.13;1801513;77;28809;-65
2021/05/08 02:16:14;;;;;;;1.07;0.88;;;;;;;3.19;70.39;99284.61;1802349;78;21142;-65
2021/05/08 02:18:41;;;;;;;0.78;0.70;;;;;;;3.17;70.02;99285.95;1798998;78;21637;-66
2021/05/08 02:21:11;;;;;;;1.07;0.82;;;;;;;3.11;70.00;99280.95;1794708;78;21146;-65
2021/05/08 02:23:38;;;;;;;1.82;1.10;;;;;;;3.06;70.42;99291.81;1803602;77;21573;-66
2021/05/08 02:26:06;;;;;;;1.95;0.85;;;;;;;3.03;70.03;99284.16;1796750;77;21050;-66
2021/05/08 02:28:33;;;;;;;1.85;1.02;;;;;;;3.05;70.00;99290.09;1798856;78;20981;-66
2021/05/08 02:31:00;;;;;;;1.22;1.02;;;;;;;3.07;70.11;99294.78;1808430;77;23481;-66
2021/05/08 02:33:28;;;;;;;1.62;1.20;;;;;;;3.11;70.23;99300.30;1801716;78;21005;-67
2021/05/08 02:35:56;;;;;;;1.40;1.30;;;;;;;3.15;70.15;99300.62;1800632;78;21190;-66
2021/05/08 02:38:23;;;;;;;1.60;1.32;;;;;;;3.22;70.26;99297.02;1809815;77;21875;-66
2021/05/08 02:40:51;;;;;;;2.00;1.50;;;;;;;3.26;70.18;99297.33;1807768;78;21135;-66
2021/05/08 02:43:18;;;;;;;;;;;;;;;3.31;70.25;99301.95;1815304;78;22166;-67
2021/05/08 02:45:45;;;;;;;4.08;2.12;;;;;;;3.33;70.34;99302.77;1810729;78;20340;-66
2021/05/08 02:48:12;;;;;;;3.45;2.02;;;;;;;3.38;70.33;99305.66;1749853;80;21175;-66
2021/05/08 02:50:39;;;;;;;2.65;1.72;;;;;;;3.38;70.25;99305.66;1750878;81;21222;-66
2021/05/08 02:53:06;;;;;;;3.80;2.40;;;;;;;3.40;70.37;99303.90;1755364;79;21578;-66
2021/05/08 02:55:34;;;;;;;3.30;2.10;;;;;;;3.42;70.33;99308.55;1753043;81;21159;-67
2021/05/08 02:58:02;;;;;;;4.03;2.17;;;;;;;3.45;70.43;99308.06;1746578;81;21136;-67
2021/05/08 03:00:29;;;;;;;2.40;2.20;;;;;;;3.46;70.46;99311.48;1770729;80;21159;-66
2021/05/08 03:02:56;;;;;;;;;;;;;;;3.50;70.48;99313.09;1779531;80;21088;-66
2021/05/08 03:05:24;;;;;;;3.67;2.40;;;;;;;3.54;70.60;99309.11;1775092;80;20239;-67
2021/05/08 03:07:51;;;;;;;4.53;3.15;;;;;;;3.50;70.49;99303.64;1775194;80;21646;-67
2021/05/08 03:10:18;;;;;;;2.70;2.25;;;;;;;3.50;70.56;99308.80;1754937;80;21071;-66
2021/05/08 03:12:45;;;;;;;3.35;2.90;;;;;;;3.50;70.56;99313.96;1758869;80;21213;-66
2021/05/08 03:15:13;;;;;;;3.65;2.95;;;;;;;3.52;70.56;99311.33;1771100;80;21229;-66
2021/05/08 03:17:40;;;;;;;4.47;3.15;;;;;;;3.57;70.60;99308.19;1766446;80;21149;-66
2021/05/08 03:22:57;;;;;;;7.80;3.60;;;;;;;4.08;71.13;99319.31;1657036;83;21197;-66
2021/05/08 03:25:25;;;;;;;4.22;3.00;;;;;;;4.78;70.70;99313.86;1665550;84;21076;-66
2021/05/08 03:27:52;;;;;;;3.85;3.00;;;;;;;4.84;70.27;99318.01;1664609;84;21606;-66
2021/05/08 03:30:20;;;;;;;4.80;3.50;;;;;;;4.80;70.24;99315.13;1660210;84;21238;-67
2021/05/08 03:32:47;;;;;;;4.53;3.75;;;;;;;4.76;70.30;99317.39;1622905;86;21295;-67
2021/05/08 03:35:14;;;;;;;5.10;3.98;;;;;;;4.78;70.48;99327.25;1602956;87;21724;-67
2021/05/08 03:37:41;;;;;;;4.33;3.50;;;;;;;4.84;70.47;99323.18;1596470;87;21701;-66
2021/05/08 03:40:10;;;;;;;5.20;3.80;;;;;;;4.88;70.46;99327.39;1621425;86;21223;-66
2021/05/08 03:42:37;;;;;;;7.97;4.00;;;;;;;4.88;70.41;99329.97;1635268;86;21216;-67
2021/05/08 03:45:06;;;;;;;6.08;4.35;;;;;;;4.91;70.50;99329.87;1637112;87;21351;-66
2021/05/08 03:47:32;;;;;;;4.12;3.10;;;;;;;5.15;70.79;99331.72;1641568;87;21231;-66
2021/05/08 03:50:00;;;;;;;3.85;3.12;;;;;;;5.35;70.24;99334.12;1632564;87;21845;-66
2021/05/08 03:52:28;;;;;;;6.50;3.55;;;;;;;5.24;70.10;99334.91;1638752;87;21171;-66
2021/05/08 03:54:55;;;;;;;4.67;3.40;;;;;;;5.16;70.22;99333.39;1638749;86;21736;-66
2021/05/08 03:57:22;;;;;;;3.60;3.08;;;;;;;5.09;69.96;99329.30;1630759;86;26698;-66
2021/05/08 03:59:50;;;;;;;5.72;3.87;;;;;;;4.87;69.81;99339.90;1634097;87;21954;-67
2021/05/08 04:02:17;;;;;;;6.37;3.85;;;;;;;4.65;69.97;99336.68;1622127;87;27284;-66
2021/05/08 04:04:45;;;;;;;4.40;3.90;;;;;;;4.53;70.17;99343.48;1614934;87;21713;-67
2021/05/08 04:07:11;;;;;;;;;;;;;;;4.43;70.29;99340.77;1621541;87;21199;-66
2021/05/08 04:09:38;;;;;;;7.05;4.30;;;;;;;4.41;70.59;99347.27;1621666;87;21631;-66
2021/05/08 04:12:07;;;;;;;4.80;3.72;;;;;;;4.47;70.74;99350.12;1621878;87;21234;-66
2021/05/08 04:14:34;;;;;;;8.50;4.25;;;;;;;4.58;70.79;99350.66;1620966;87;21227;-67
2021/05/08 04:17:01;;;;;;;4.40;3.83;;;;;;;4.68;70.94;99354.69;1621805;87;21284;-67
2021/05/08 04:19:28;;;;;;;4.12;3.60;;;;;;;4.88;71.02;99358.43;1621613;87;21216;-66
2021/05/08 04:21:55;;;;;;;4.62;3.72;;;;;;;5.00;70.71;99352.87;1636820;85;21304;-66
2021/05/08 04:24:23;;;;;;;5.55;4.10;;;;;;;5.02;70.61;99353.69;1650095;86;21167;-67
2021/05/08 04:26:50;;;;;;;5.53;4.12;;;;;;;4.98;70.77;99353.36;1653086;84;21170;-66
2021/05/08 04:29:19;;;;;;;5.10;4.37;;;;;;;5.03;70.82;99355.36;1658696;84;21698;-66
2021/05/08 04:31:46;;;;;;;4.83;4.10;;;;;;;5.03;70.92;99357.95;1649141;85;21154;-67
2021/05/08 04:34:13;;;;;;;5.87;4.55;;;;;;;5.07;71.08;99358.27;1659008;85;21248;-66
2021/05/08 04:36:40;;;;;;;5.65;4.15;;;;;;;5.13;71.20;99358.08;1654414;85;21120;-67
2021/05/08 04:39:07;;;;;;;5.87;4.50;;;;;;;5.18;71.11;99363.55;1652660;85;21210;-67
2021/05/08 04:41:34;;;;;;;7.90;4.37;;;;;;;5.13;71.14;99363.71;1656436;85;21281;-67
2021/05/08 04:44:02;;;;;;;6.00;4.70;;;;;;;5.15;71.23;99368.37;1660780;84;21290;-66
2021/05/08 04:46:29;;;;;;;5.87;4.87;;;;;;;5.22;71.46;99372.93;1596359;86;22363;-67
2021/05/08 04:48:58;;;;;;;8.85;5.37;;;;;;;5.31;71.41;99367.45;1660794;85;26682;-66
2021/05/08 04:51:27;;;;;;;7.85;5.20;;;;;;;5.41;71.49;99368.87;1654055;85;21641;-66
2021/05/08 04:53:56;;;;;;;5.58;4.62;;;;;;;5.60;71.51;99369.98;1653833;85;21110;-67
2021/05/08 04:56:23;;;;;;;5.55;4.83;;;;;;;5.79;71.50;99371.94;1654544;85;21601;-67
2021/05/08 04:58:51;;;;;;;7.17;5.30;;;;;;;5.86;71.27;99363.08;1657622;85;22003;-66
2021/05/08 05:01:19;;;;;;;6.60;5.33;;;;;;;5.94;71.42;99371.47;1658322;85;21633;-66
2021/05/08 05:03:46;;;;;;;5.50;5.00;;;;;;;6.08;71.45;99374.02;1664846;85;21199;-66
2021/05/08 05:06:14;;;;;;;5.72;5.22;;;;;;;6.15;71.40;99374.22;1628943;86;21634;-67
2021/05/08 05:08:41;;;;;;;;;;;;;;;6.32;71.51;99370.58;1656336;85;21238;-66
2021/05/08 05:11:09;;;;;;;5.78;4.15;;;;;;;6.56;71.63;99369.32;1626870;86;20261;-67
2021/05/08 05:13:58;;;;;;;7.28;3.87;;;;;;;7.12;72.02;99371.53;1614025;87;21231;-67
2021/05/08 05:16:26;;;;;;;4.20;3.47;;;;;;;8.41;71.45;99372.75;1633776;86;21156;-67
2021/05/08 05:18:53;;;;;;;6.55;3.58;;;;;;;9.22;71.53;99377.32;1667702;83;21673;-67
2021/05/08 05:21:20;;;;;;;3.25;2.72;;;;;;;10.55;70.73;99368.53;1660312;83;21217;-67
2021/05/08 05:23:48;;;;;;;4.58;2.62;;;;;;;10.87;70.04;99374.20;1662077;83;21278;-67
2021/05/08 05:26:15;;;;;;;3.65;2.47;;;;;;;10.86;69.21;99371.66;1656123;84;21288;-67
2021/05/08 05:31:00;;;;;;;2.10;1.90;;;;;;;10.46;69.26;99377.23;1804377;77;22675;-66
2021/05/08 05:33:27;;;;;;;5.25;1.85;;;;;;;10.22;69.01;99381.06;1775580;78;21640;-65
2021/05/08 05:35:56;;;;;;;3.42;2.47;;;;;;;9.96;69.00;99386.30;1777483;79;22259;-66
2021/05/08 05:38:25;;;;;;;3.58;2.50;;;;;;;9.67;69.14;99386.45;1775607;79;21060;-65
2021/05/08 05:40:54;;;;;;;7.25;2.80;;;;;;;9.25;68.99;99397.55;1786713;79;21012;-67
2021/05/08 05:43:22;;;;;;;4.03;3.10;;;;;;;8.96;69.34;99397.58;1785887;79;21016;-66
2021/05/08 05:45:51;;;;;;;5.33;3.45;;;;;;;8.77;69.41;99396.76;1784816;78;21052;-66
2021/05/08 05:48:20;;;;;;;4.20;2.92;;;;;;;8.44;69.34;99402.07;1783984;79;21690;-66
2021/05/08 05:50:48;;;;;;;4.12;2.77;;;;;;;8.22;69.50;99406.02;1782176;79;21047;-65
2021/05/08 05:53:14;;;;;;;6.65;3.30;;;;;;;8.01;69.40;99409.51;1781716;79;21669;-63
2021/05/08 05:55:42;;;;;;;4.78;2.75;;;;;;;7.78;69.42;99416.50;1781209;79;21229;-64
2021/05/08 05:58:09;;;;;;;4.72;2.52;;;;;;;7.61;69.58;99418.94;1775214;79;21230;-64
2021/05/08 06:00:37;;;;;;;4.75;3.42;;;;;;;7.53;69.69;99415.80;1776528;79;21306;-65
2021/05/08 06:03:04;;;;;;;7.45;2.50;;;;;;;7.48;69.67;99422.92;1767982;79;21003;-64
2021/05/08 06:05:31;;;;;;;6.58;2.80;;;;;;;7.41;69.72;99419.73;1784748;79;21016;-64
2021/05/08 06:07:58;;;;;;;3.70;2.75;;;;;;;7.43;69.87;99419.69;1777020;79;21008;-65
2021/05/08 06:10:26;;;;;;;6.55;2.27;;;;;;;7.48;69.88;99426.39;1786788;79;21629;-64
2021/05/08 06:12:53;;;;;;;;;;;;;;;7.50;69.79;99428.91;1781351;79;21613;-64
2021/05/08 06:15:21;;;;;;;3.25;2.17;;;;;;;7.49;69.80;99427.23;1783029;79;20188;-65
2021/05/08 06:17:48;;;;;;;6.00;2.30;;;;;;;7.49;69.80;99428.53;1780302;79;21152;-65
2021/05/08 06:20:16;;;;;;;6.55;2.65;;;;;;;7.50;69.71;99425.02;1783594;79;21024;-64
2021/05/08 06:22:43;;;;;;;3.72;2.52;;;;;;;7.76;70.16;99433.93;1775377;79;21202;-64
2021/05/08 06:25:11;;;;;;;4.25;2.60;;;;;;;8.07;70.02;99430.08;1776231;79;21156;-65
2021/05/08 06:27:40;;;;;;;4.95;2.67;;;;;;;8.45;70.17;99426.33;1770259;79;21205;-64
2021/05/08 06:30:09;;;;;;;5.00;2.58;;;;;;;9.03;70.30;99426.34;1773396;78;21183;-64
2021/05/08 06:32:36;;;;;;;3.30;2.12;;;;;;;9.82;70.17;99422.19;1772629;79;21143;-64
2021/05/08 06:35:04;;;;;;;6.67;2.00;;;;;;;10.16;69.06;99428.34;1776536;79;21675;-64
2021/05/08 06:37:33;;;;;;;4.40;2.00;;;;;;;10.12;68.57;99426.83;1765960;79;21176;-66
2021/05/08 06:40:00;;;;;;;3.85;2.30;;;;;;;10.12;68.75;99429.44;1772580;79;21047;-64
2021/05/08 06:42:27;;;;;;;3.98;1.90;;;;;;;10.35;69.23;99422.61;1761167;79;21194;-64
2021/05/08 06:44:54;;;;;;;2.27;1.60;;;;;;;10.87;68.98;99418.59;1771325;79;21257;-65
2021/05/08 06:47:21;;;;;;;3.90;1.70;;;;;;;11.16;68.73;99424.02;1766130;79;21139;-64
2021/05/08 06:49:48;;;;;;;4.70;1.80;;;;;;;11.34;68.13;99423.03;1767784;79;21809;-64
2021/05/08 06:52:16;;;;;;;2.67;1.72;;;;;;;11.49;67.82;99415.26;1742161;80;21143;-64
2021/05/08 06:54:43;;;;;;;;;;;;;;;11.39;67.26;99418.36;1766903;80;21095;-64
2021/05/08 06:57:10;;;;;;;7.80;1.80;;;;;;;11.07;67.21;99417.53;1766658;79;20323;-64
2021/05/08 06:59:37;;;;;;;5.53;1.95;;;;;;;10.72;67.29;99422.01;1775065;79;21186;-64
2021/05/08 07:02:04;;;;;;;4.75;1.82;;;;;;;10.32;67.22;99419.33;1769991;79;21161;-64
2021/05/08 07:04:32;;;;;;;;;;;;;;;9.99;67.07;99421.36;1767234;79;21174;-64
2021/05/08 07:06:59;;;;;;;6.67;2.00;;;;;;;9.58;67.31;99438.11;1769703;79;20223;-64
2021/05/08 07:09:26;;;;;;;5.80;2.25;;;;;;;9.30;67.46;99445.52;1739908;80;21208;-64
2021/05/08 07:11:55;;;;;;;5.72;2.58;;;;;;;8.90;67.26;99438.22;1750223;80;21015;-64
2021/05/08 07:14:22;;;;;;;3.20;1.60;;;;;;;8.59;67.51;99445.24;1724201;81;21302;-65
2021/05/08 07:16:49;;;;;;;2.58;1.30;;;;;;;8.22;67.10;99460.63;1757404;79;21645;-64
2021/05/08 07:19:16;;;;;;;5.85;1.25;;;;;;;7.78;67.18;99461.98;1731637;82;21154;-64
2021/05/08 07:21:44;;;;;;;2.85;1.40;;;;;;;7.30;66.97;99472.08;1754899;79;21615;-64
2021/05/08 07:24:11;;;;;;;6.58;2.30;;;;;;;6.74;67.10;99478.91;1755740;80;20997;-65
2021/05/08 07:26:38;;;;;;;4.37;1.87;;;;;;;6.21;67.34;99488.91;1741347;81;22169;-65
2021/05/08 07:29:05;;;;;;;3.50;1.57;;;;;;;5.90;67.72;99486.44;1734093;81;21044;-65
2021/05/08 07:31:32;;;;;;;3.37;0.80;;;;;;;5.83;67.93;99482.37;1758949;79;21202;-65
2021/05/08 07:33:59;;;;;;;1.92;0.85;;;;;;;5.86;68.27;99493.93;1757873;80;21624;-65
2021/05/08 07:36:26;;;;;;;1.77;0.68;;;;;;;5.99;68.44;99496.57;1720025;81;21203;-65
2021/05/08 07:38:56;;;;;;;1.05;0.60;;;;;;;6.17;68.38;99486.49;1730070;81;21219;-64
2021/05/08 07:41:22;;;;;;;1.87;0.90;;;;;;;6.21;68.17;99501.03;1727474;81;21197;-64
2021/05/08 07:43:49;;;;;;;1.47;0.70;;;;;;;6.17;68.05;99503.34;1758471;79;21230;-64
2021/05/08 07:46:17;;;;;;;2.75;1.82;;;;;;;6.05;68.04;99501.55;1750877;79;21740;-64
2021/05/08 07:48:43;;;;;;;1.37;0.82;;;;;;;5.95;68.21;99501.89;1743733;79;21210;-64
2021/05/08 07:51:11;;;;;;;1.00;0.70;;;;;;;5.92;68.45;99502.80;1745251;80;22616;-64
2021/05/08 07:53:38;;;;;;;4.45;0.90;;;;;;;5.89;68.51;99500.77;1728331;81;21546;-65
2021/05/08 07:56:05;;;;;;;1.15;0.60;;;;;;;5.87;68.66;99504.68;1733265;82;22396;-65
2021/05/08 07:58:32;;;;;;;1.17;0.70;;;;;;;5.87;68.73;99505.14;1728189;82;21187;-64
2021/05/08 08:01:01;;;;;;;;;;;;;;;5.92;68.81;99505.84;1734424;81;21199;-67
2021/05/08 08:03:30;;;;;;;3.00;1.05;;;;;;;6.01;69.13;99512.05;1732197;82;21158;-66
2021/05/08 08:05:58;;;;;;;2.95;1.02;;;;;;;5.98;68.62;99518.18;1726891;82;21219;-66
2021/05/08 08:08:25;;;;;;;2.50;1.10;;;;;;;5.84;68.57;99517.73;1731514;81;21641;-66
2021/05/08 08:10:53;;;;;;;2.35;1.22;;;;;;;5.70;68.75;99521.20;1734033;81;21160;-65
2021/05/08 08:13:21;;;;;;;4.72;2.47;;;;;;;5.52;68.71;99517.44;1722931;82;21234;-67
2021/05/08 08:15:48;;;;;;;3.77;1.52;;;;;;;5.37;69.19;99525.19;1721632;82;24988;-65
2021/05/08 08:18:15;;;;;;;2.10;1.25;;;;;;;5.14;69.09;99528.45;1725425;82;21062;-64
2021/05/08 08:20:42;;;;;;;2.83;1.45;;;;;;;4.99;69.42;99516.79;1698886;83;21593;-65
2021/05/08 08:23:09;;;;;;;4.83;1.87;;;;;;;4.98;69.84;99519.41;1728127;82;21187;-67
2021/05/08 08:25:39;;;;;;;3.75;1.95;;;;;;;5.03;69.87;99523.56;1728945;82;21253;-66
2021/05/08 08:28:06;;;;;;;5.37;1.90;;;;;;;5.19;70.09;99520.56;1722532;82;21213;-66
2021/05/08 08:30:33;;;;;;;;;;;;;;;5.38;70.42;99523.02;1730377;82;21202;-66
2021/05/08 08:33:00;;;;;;;6.20;3.35;;;;;;;5.54;70.54;99524.69;1724438;82;20207;-64
2021/05/08 08:35:27;;;;;;;6.03;3.10;;;;;;;5.66;70.37;99527.36;1724831;82;21238;-65
2021/05/08 08:37:54;;;;;;;7.92;3.22;;;;;;;5.97;70.71;99527.31;1729053;82;21829;-65
2021/05/08 08:40:24;;;;;;;4.92;2.98;;;;;;;6.30;70.71;99526.65;1725718;82;22479;-65
2021/05/08 08:42:52;;;;;;;8.20;3.12;;;;;;;6.57;70.60;99519.70;1729012;82;21614;-65
2021/05/08 08:45:19;;;;;;;5.12;2.72;;;;;;;6.80;70.55;99521.50;1729793;82;21224;-66
2021/05/08 08:47:46;;;;;;;4.47;3.00;;;;;;;6.94;70.36;99523.61;1720149;82;21285;-66
2021/05/08 08:50:14;;;;;;;8.08;2.87;;;;;;;7.03;70.10;99519.83;1723861;82;21153;-67
2021/05/08 08:52:44;;;;;;;5.53;2.60;;;;;;;7.04;70.04;99516.36;1723683;82;22173;-67
2021/05/08 08:55:13;;;;;;;9.10;3.37;;;;;;;7.13;70.27;99516.85;1728801;82;21034;-65
2021/05/08 08:57:45;;;;;;;9.80;3.20;;;;;;;7.45;70.72;99516.56;1725531;82;21715;-66
2021/05/08 09:00:16;;;;;;;7.83;2.60;;;;;;;7.88;70.94;99512.33;1716142;82;21653;-65
2021/05/08 09:02:46;;;;;;;2.58;1.37;;;;;;;8.32;70.68;99526.57;1717998;82;21176;-66
2021/05/08 09:05:17;;;;;;;2.12;0.90;;;;;;;8.17;69.43;99526.75;1729425;82;21248;-67
2021/05/08 09:07:47;;;;;;;1.62;0.80;;;;;;;7.60;68.87;99531.59;1729177;82;21240;-67
2021/05/08 09:10:27;;;;;;;2.42;1.27;;;;;;;7.22;69.22;99541.64;1726481;82;21089;-67
2021/05/08 09:12:59;;;;;;;1.12;0.60;;;;;;;6.93;69.62;99548.72;1724044;82;21105;-66
2021/05/08 09:15:37;;;;;;;2.55;0.80;;;;;;;6.80;70.07;99552.64;1722411;82;21209;-65
2021/05/08 09:18:06;;;;;;;1.50;0.78;;;;;;;6.95;70.29;99553.42;1727127;81;21231;-67
2021/05/08 09:20:48;;;;;;;2.83;0.88;;;;;;;7.39;70.85;99548.81;1727226;82;20979;-64
2021/05/08 09:23:37;;;;;;;1.35;0.70;;;;;;;7.99;70.99;99549.14;1726490;82;21108;-66
2021/05/08 09:26:11;;;;;;;1.70;0.68;;;;;;;8.63;69.76;99545.26;1733985;82;21191;-65
2021/05/08 09:28:43;;;;;;;2.75;1.17;;;;;;;9.12;70.11;99540.98;1711747;83;21216;-66
2021/05/08 09:31:14;;;;;;;2.98;1.40;;;;;;;9.45;69.64;99546.45;1728540;82;22100;-65
2021/05/08 09:33:44;;;;;;;5.50;2.45;;;;;;;9.59;68.84;99538.84;1728981;82;21169;-65
2021/05/08 09:36:12;;;;;;;5.55;1.80;;;;;;;9.55;69.00;99541.22;1725610;81;21067;-66
2021/05/08 09:38:42;;;;;;;3.90;1.80;;;;;;;9.86;69.65;99548.92;1722428;82;21094;-65
2021/05/08 09:41:12;;;;;;;3.00;0.98;;;;;;;9.88;69.12;99550.97;1725190;82;21758;-65
2021/05/08 09:43:40;;;;;;;2.75;1.25;;;;;;;9.92;68.49;99553.84;1729238;82;22096;-65
2021/05/08 09:46:09;;;;;;;3.33;1.10;;;;;;;10.02;68.97;99547.25;1723360;82;21252;-64
2021/05/08 09:48:38;;;;;;;3.35;0.80;;;;;;;10.22;69.03;99542.84;1724172;82;21154;-65
2021/05/08 09:51:27;;;;;;;1.82;0.78;;;;;;;10.32;68.77;99557.17;1730315;82;21221;-65
2021/05/08 09:54:05;;;;;;;1.27;0.60;;;;;;;10.20;68.17;99544.70;1728211;82;21769;-65
2021/05/08 09:56:45;;;;;;;3.00;0.80;;;;;;;10.25;68.23;99563.56;1729933;81;22602;-66
2021/05/08 09:59:40;;;;;;;1.17;0.82;;;;;;;10.05;68.07;99565.39;1712279;81;21242;-65
2021/05/08 10:02:11;;;;;;;1.82;1.07;;;;;;;10.04;67.98;99565.45;1729545;81;21268;-65
2021/05/08 10:04:46;;;;;;;2.50;1.12;;;;;;;9.97;67.96;99577.95;1722995;82;21155;-65
2021/05/08 10:07:21;;;;;;;1.90;0.95;;;;;;;10.13;68.40;99573.29;1730515;82;21607;-66
2021/05/08 10:09:51;;;;;;;2.15;1.02;;;;;;;10.21;67.82;99571.16;1724650;82;21261;-66
2021/05/08 10:12:22;;;;;;;2.15;1.10;;;;;;;10.07;67.44;99576.58;1723539;82;21010;-65
2021/05/08 10:14:54;;;;;;;2.65;1.10;;;;;;;10.19;67.99;99571.69;1719128;82;21399;-67
2021/05/08 10:17:24;;;;;;;2.77;1.10;;;;;;;10.48;67.89;99573.77;1722044;82;21257;-66
2021/05/08 10:19:57;;;;;;;2.67;1.17;;;;;;;10.64;67.93;99566.04;1721571;82;22715;-65
2021/05/08 10:22:29;;;;;;;1.52;0.72;;;;;;;10.63;67.35;99571.32;1711755;82;22205;-66
2021/05/08 10:25:04;;;;;;;3.10;1.25;;;;;;;10.34;66.48;99571.00;1721385;82;21162;-66
2021/05/08 10:27:32;;;;;;;2.42;1.25;;;;;;;10.25;66.95;99573.56;1720193;81;21184;-66
2021/05/08 10:30:00;;;;;;;4.20;1.50;;;;;;;10.15;66.19;99576.68;1699432;82;21697;-65
2021/05/08 10:32:28;;;;;;;3.37;1.30;;;;;;;9.92;66.19;99572.09;1714040;81;21104;-66
2021/05/08 10:35:02;;;;;;;3.65;1.30;;;;;;;9.83;66.64;99575.11;1722371;82;21264;-65
2021/05/08 10:37:30;;;;;;;4.60;1.80;;;;;;;9.78;66.48;99579.72;1723069;82;21818;-66
2021/05/08 10:40:10;;;;;;;4.28;2.58;;;;;;;9.82;66.68;99572.13;1720993;82;21161;-66
2021/05/08 10:42:50;;;;;;;3.02;1.62;;;;;;;10.01;66.98;99576.88;1722467;82;21132;-65
2021/05/08 10:45:43;;;;;;;2.50;1.35;;;;;;;10.47;67.14;99579.05;1728647;81;21070;-66
2021/05/08 10:48:12;;;;;;;3.02;0.95;;;;;;;10.84;66.69;99579.39;1624425;87;21263;-66
2021/05/08 10:50:46;;;;;;;2.00;1.00;;;;;;;11.13;66.13;99578.36;1630347;87;21263;-66
2021/05/08 10:53:19;;;;;;;0.90;0.72;;;;;;;10.82;65.37;99579.92;1635213;87;21825;-65
2021/05/08 10:55:58;;;;;;;4.03;1.47;;;;;;;10.82;65.37;99579.92;1627081;85;21232;-65
2021/05/08 10:58:38;;;;;;;2.60;0.90;;;;;;;10.58;65.48;99583.75;1635117;86;21745;-66
2021/05/08 11:01:11;;;;;;;2.65;1.02;;;;;;;10.61;65.91;99580.98;1623082;86;21252;-66
2021/05/08 11:03:53;;;;;;;3.30;0.82;;;;;;;10.57;65.46;99591.21;1580726;89;21316;-66
2021/05/08 11:06:20;;;;;;;3.85;0.93;;;;;;;10.62;65.83;99587.92;1631434;85;21272;-66
2021/05/08 11:08:49;;;;;;;2.45;1.30;;;;;;;10.71;65.69;99584.84;1616528;86;21251;-67
2021/05/08 11:11:25;;;;;;;4.08;1.90;;;;;;;10.69;65.55;99597.13;1615949;86;21200;-66
2021/05/08 11:13:59;;;;;;;6.12;1.52;;;;;;;10.74;65.74;99597.74;1623803;86;22649;-66
2021/05/08 11:16:27;;;;;;;3.25;1.65;;;;;;;10.80;65.14;99602.66;1622663;86;21757;-67
2021/05/08 11:18:59;;;;;;;2.42;1.40;;;;;;;10.72;65.36;99610.02;1625242;86;21239;-67
2021/05/08 11:21:37;;;;;;;4.45;1.85;;;;;;;10.96;65.45;99610.11;1793300;77;22748;-66
2021/05/08 11:24:05;;;;;;;2.70;0.90;;;;;;;11.10;65.40;99605.48;1757795;79;21198;-66
2021/05/08 11:26:41;;;;;;;3.22;1.40;;;;;;;11.19;65.48;99604.16;1762709;80;21185;-66
2021/05/08 11:29:20;;;;;;;3.02;1.35;;;;;;;11.37;65.20;99618.91;1758854;80;21093;-66
2021/05/08 11:31:57;;;;;;;2.62;1.42;;;;;;;11.40;65.05;99613.52;1757698;79;21150;-66
2021/05/08 11:34:29;;;;;;;2.30;1.30;;;;;;;11.34;64.23;99631.27;1756266;79;21212;-65
2021/05/08 11:37:09;;;;;;;3.47;1.60;;;;;;;11.25;64.90;99629.14;1755426;79;21021;-66
2021/05/08 11:39:43;;;;;;;4.05;1.30;;;;;;;11.26;64.30;99629.08;1752460;79;21230;-65
2021/05/08 11:42:19;;;;;;;3.60;1.40;;;;;;;10.64;62.26;99636.97;1754327;80;21407;-67
2021/05/08 11:44:56;;;;;;;2.35;1.40;;;;;;;10.27;64.02;99634.83;1756546;80;21219;-68
2021/05/08 11:50:13;;;;;;;3.50;1.62;;;;;;;8.58;61.03;99676.02;1811759;77;27882;-66
2021/05/08 11:52:48;;;;;;;3.72;1.45;;;;;;;7.26;61.93;99673.09;1803391;78;21198;-66
2021/05/08 11:55:19;;;;;;;4.92;1.80;;;;;;;6.50;63.37;99666.93;1802898;78;21200;-67
2021/05/08 11:57:58;;;;;;;2.50;0.95;;;;;;;6.01;63.85;99664.97;1799687;78;21054;-67
2021/05/08 12:00:31;;;;;;;8.70;2.17;;;;;;;5.55;64.33;99667.11;1794458;78;21308;-67
2021/05/08 12:03:14;;;;;;;5.42;2.20;;;;;;;5.31;64.79;99660.00;1799729;77;20970;-66
2021/05/08 12:05:47;;;;;;;6.72;1.92;;;;;;;5.26;65.08;99652.80;1801259;77;21103;-67